Time;durP1;ratioP1;P1;durP2;ratioP2;P2;SDS_P1;SDS_P2;PMS_P1;PMS_P2;Temp;Humidity;BMP_temperature;BMP_pressure;BME280_temperature;BME280_humidity;BME280_pressure;Samples;Min_cycle;Max_cycle;Signal;HPM_P1;HPM_P2
2022/08/26 00:02:16;;;;;;;10.50;5.55;;;21.40;99.90;;;;;;5036989;28;20116;-79
2022/08/26 00:04:42;;;;;;;13.05;5.88;;;21.40;99.90;;;;;;5028425;28;20039;-80
2022/08/26 00:07:08;;;;;;;12.60;5.15;;;21.40;99.90;;;;;;5036708;28;20115;-80
2022/08/26 00:09:34;;;;;;;9.43;4.95;;;21.40;99.90;;;;;;5021762;28;20577;-80
2022/08/26 00:11:59;;;;;;;7.70;4.20;;;21.30;99.90;;;;;;5002161;28;20391;-80
2022/08/26 00:14:26;;;;;;;12.73;5.00;;;21.30;99.90;;;;;;5020584;28;20044;-80
2022/08/26 00:16:52;;;;;;;11.65;5.65;;;21.40;99.90;;;;;;5009408;28;20037;-80
2022/08/26 00:19:19;;;;;;;12.15;4.88;;;21.30;99.90;;;;;;5001419;28;20037;-80
2022/08/26 00:21:46;;;;;;;9.10;4.47;;;21.30;99.90;;;;;;5012876;28;20037;-80
2022/08/26 00:24:12;;;;;;;11.05;4.20;;;21.30;99.90;;;;;;5037832;28;20352;-80
2022/08/26 00:26:38;;;;;;;10.30;5.10;;;21.30;99.90;;;;;;5023330;28;20128;-80
2022/08/26 00:29:04;;;;;;;6.72;4.30;;;21.30;99.90;;;;;;5034831;28;20606;-80
2022/08/26 00:31:30;;;;;;;7.75;4.50;;;21.30;99.90;;;;;;5019150;28;20052;-80
2022/08/26 00:33:56;;;;;;;11.23;5.10;;;21.30;99.90;;;;;;5034884;28;20475;-80
2022/08/26 00:36:22;;;;;;;8.80;4.43;;;21.30;99.90;;;;;;5046473;28;20122;-80
2022/08/26 00:38:48;;;;;;;9.32;3.70;;;21.30;99.90;;;;;;5035581;28;20049;-80
2022/08/26 00:41:14;;;;;;;9.77;5.78;;;21.30;99.90;;;;;;5037155;28;20380;-81
2022/08/26 00:43:40;;;;;;;11.10;4.75;;;21.30;99.90;;;;;;5031902;28;20049;-80
2022/08/26 00:46:15;;;;;;;10.20;4.40;;;21.20;99.90;;;;;;5036359;28;20047;-81
2022/08/26 00:48:46;;;;;;;6.45;3.78;;;21.20;99.90;;;;;;5050832;28;20037;-81
2022/08/26 00:51:17;;;;;;;7.22;3.20;;;21.20;99.90;;;;;;5051821;28;20029;-80
2022/08/26 00:53:50;;;;;;;7.18;4.25;;;21.30;99.90;;;;;;5034073;28;20033;-79
2022/08/26 00:56:33;;;;;;;7.75;3.67;;;21.30;99.90;;;;;;5053726;28;20124;-79
2022/08/26 00:59:10;;;;;;;9.93;3.92;;;21.30;99.90;;;;;;5052695;28;20088;-79
2022/08/26 01:01:38;;;;;;;5.32;3.17;;;21.30;99.90;;;;;;5035363;28;20048;-79
2022/08/26 01:04:04;;;;;;;7.55;3.72;;;21.20;99.90;;;;;;5035044;28;20056;-79
2022/08/26 01:06:30;;;;;;;10.50;3.90;;;21.20;99.90;;;;;;5051865;28;20072;-79
2022/08/26 01:08:56;;;;;;;7.57;3.15;;;21.10;99.90;;;;;;5052883;28;20466;-79
2022/08/26 01:11:22;;;;;;;9.98;3.80;;;21.20;99.90;;;;;;5033127;28;20041;-80
2022/08/26 01:13:52;;;;;;;5.10;3.17;;;21.20;99.90;;;;;;5036570;28;20044;-79
2022/08/26 01:16:18;;;;;;;6.13;3.17;;;21.20;99.90;;;;;;5050032;28;20032;-79
2022/08/26 01:18:44;;;;;;;5.55;2.70;;;21.10;99.90;;;;;;5051723;28;20045;-79
2022/08/26 01:21:19;;;;;;;7.05;3.17;;;21.10;99.90;;;;;;5036022;28;20060;-80
2022/08/26 01:23:49;;;;;;;9.20;3.22;;;21.10;99.90;;;;;;5052956;28;20390;-79
2022/08/26 01:26:23;;;;;;;5.50;2.53;;;21.10;99.90;;;;;;5050741;28;20043;-79
2022/08/26 01:28:52;;;;;;;5.35;2.80;;;21.10;99.90;;;;;;5041287;28;20080;-80
2022/08/26 01:31:23;;;;;;;10.55;3.58;;;21.10;99.90;;;;;;5040015;28;20029;-80
2022/08/26 01:34:02;;;;;;;7.97;3.20;;;21.10;99.90;;;;;;5035179;28;20102;-80
2022/08/26 01:36:28;;;;;;;6.82;2.88;;;21.10;99.90;;;;;;5051137;28;20491;-80
2022/08/26 01:38:54;;;;;;;6.00;3.08;;;21.10;99.90;;;;;;5031720;28;20063;-80
2022/08/26 01:41:20;;;;;;;5.88;3.33;;;21.10;99.90;;;;;;5034960;28;20036;-80
2022/08/26 01:43:52;;;;;;;7.30;3.38;;;21.10;99.90;;;;;;5018210;28;20506;-79
2022/08/26 01:46:20;;;;;;;7.43;3.13;;;21.10;99.90;;;;;;5051246;28;20132;-79
2022/08/26 01:48:46;;;;;;;5.18;2.78;;;21.10;99.90;;;;;;5051043;28;20040;-80
2022/08/26 01:51:13;;;;;;;7.65;3.67;;;21.10;99.90;;;;;;5052951;28;20050;-79
2022/08/26 01:53:40;;;;;;;7.28;3.03;;;21.00;99.90;;;;;;5049871;28;20056;-79
2022/08/26 01:56:09;;;;;;;6.18;2.85;;;21.00;99.90;;;;;;5051743;28;20036;-79
2022/08/26 01:58:45;;;;;;;5.63;2.92;;;21.00;99.90;;;;;;5052330;28;20052;-79
2022/08/26 02:01:12;;;;;;;6.88;2.65;;;21.00;99.90;;;;;;5052736;28;20040;-80
2022/08/26 02:04:04;;;;;;;5.07;2.55;;;20.90;99.90;;;;;;5047062;28;20052;-80
2022/08/26 02:06:30;;;;;;;3.80;2.65;;;20.80;99.90;;;;;;5052567;28;20041;-80
2022/08/26 02:09:00;;;;;;;6.00;2.08;;;20.80;99.90;;;;;;5051860;28;20045;-81
2022/08/26 02:11:26;;;;;;;5.78;2.47;;;20.70;99.90;;;;;;5050291;28;20037;-80
2022/08/26 02:14:13;;;;;;;5.35;2.88;;;20.60;99.90;;;;;;5035197;28;20407;-80
2022/08/26 02:16:41;;;;;;;3.33;1.98;;;20.60;99.90;;;;;;5046301;28;20041;-80
2022/08/26 02:19:17;;;;;;;5.65;2.42;;;20.50;99.90;;;;;;5050102;28;20099;-80
2022/08/26 02:21:45;;;;;;;4.47;2.22;;;20.50;99.90;;;;;;5050857;28;20135;-80
2022/08/26 02:24:24;;;;;;;5.15;2.35;;;20.50;99.90;;;;;;5049336;28;20139;-80
2022/08/26 02:26:51;;;;;;;4.95;2.35;;;20.50;99.90;;;;;;5051640;28;20048;-80
2022/08/26 02:29:36;;;;;;;3.83;2.60;;;20.50;99.90;;;;;;5047582;28;20037;-80
2022/08/26 02:32:02;;;;;;;6.28;2.45;;;20.60;99.90;;;;;;5047984;28;20121;-80
2022/08/26 02:34:33;;;;;;;5.00;2.22;;;20.60;99.90;;;;;;5017315;28;20061;-80
2022/08/26 02:37:03;;;;;;;4.35;2.25;;;20.60;99.90;;;;;;5050056;28;20056;-80
2022/08/26 02:39:30;;;;;;;4.40;2.40;;;20.70;99.90;;;;;;5050536;28;20037;-80
2022/08/26 02:41:56;;;;;;;3.10;1.85;;;20.70;99.90;;;;;;5051420;28;20052;-80
2022/08/26 02:44:22;;;;;;;3.75;1.98;;;20.70;99.90;;;;;;5052136;28;20077;-80
2022/08/26 02:46:48;;;;;;;7.32;2.17;;;20.70;99.90;;;;;;5034646;28;20076;-80
2022/08/26 02:49:15;;;;;;;4.88;1.83;;;20.60;99.90;;;;;;5034915;28;20406;-80
2022/08/26 02:51:40;;;;;;;3.85;2.17;;;20.60;99.90;;;;;;5048052;28;20041;-80
2022/08/26 02:54:06;;;;;;;7.25;2.45;;;20.60;99.90;;;;;;5052377;28;20094;-80
2022/08/26 02:56:33;;;;;;;4.35;2.10;;;20.70;99.90;;;;;;5048872;28;20037;-80
2022/08/26 02:58:59;;;;;;;4.32;2.20;;;20.70;99.90;;;;;;5035640;28;20140;-81
2022/08/26 03:01:28;;;;;;;4.97;1.98;;;20.60;99.90;;;;;;5048090;28;20609;-80
2022/08/26 03:03:55;;;;;;;6.55;2.22;;;20.60;99.90;;;;;;5049911;28;20546;-81
2022/08/26 03:06:21;;;;;;;3.90;1.92;;;20.60;99.90;;;;;;5034600;28;20132;-80
2022/08/26 03:08:47;;;;;;;2.95;1.65;;;20.60;99.90;;;;;;5052337;28;20081;-79
2022/08/26 03:11:13;;;;;;;4.65;1.98;;;20.60;99.90;;;;;;5048940;28;20084;-80
2022/08/26 03:13:40;;;;;;;2.90;1.52;;;20.60;99.90;;;;;;5053368;28;20045;-81
2022/08/26 03:16:06;;;;;;;6.60;1.98;;;20.60;99.90;;;;;;5033094;28;20044;-80
2022/08/26 03:18:32;;;;;;;4.05;1.27;;;20.60;99.90;;;;;;5038218;28;20075;-80
2022/08/26 03:21:05;;;;;;;8.05;1.90;;;20.60;99.90;;;;;;5052544;28;20033;-80
2022/08/26 03:23:31;;;;;;;3.78;1.40;;;20.60;99.90;;;;;;5055170;28;20437;-80
2022/08/26 03:25:57;;;;;;;4.63;1.65;;;20.60;99.90;;;;;;5054041;28;20041;-80
2022/08/26 03:28:23;;;;;;;3.47;1.67;;;20.60;99.90;;;;;;5054988;28;20037;-80
2022/08/26 03:30:48;;;;;;;5.50;1.92;;;20.60;99.90;;;;;;5037732;28;20064;-80
2022/08/26 03:33:14;;;;;;;4.20;1.10;;;20.60;99.90;;;;;;5036318;28;20035;-81
2022/08/26 03:35:43;;;;;;;2.33;0.90;;;20.60;99.90;;;;;;5054274;28;20060;-80
2022/08/26 03:38:09;;;;;;;5.32;1.70;;;20.60;99.90;;;;;;5054870;28;20110;-80
2022/08/26 03:40:35;;;;;;;6.05;1.52;;;20.60;99.90;;;;;;5037956;28;20048;-79
2022/08/26 03:43:03;;;;;;;3.78;1.30;;;20.60;99.90;;;;;;5053132;28;20040;-79
2022/08/26 03:45:29;;;;;;;3.53;1.17;;;20.60;99.90;;;;;;5054338;28;20041;-79
2022/08/26 03:47:56;;;;;;;9.27;2.03;;;20.60;99.90;;;;;;5038362;28;20102;-79
2022/08/26 03:50:22;;;;;;;3.92;0.95;;;20.60;99.90;;;;;;5055324;28;20043;-79
2022/08/26 03:52:50;;;;;;;5.10;1.50;;;20.60;99.90;;;;;;5050202;28;20037;-79
2022/08/26 03:55:16;;;;;;;5.30;1.60;;;20.60;99.90;;;;;;5054925;28;20062;-79
2022/08/26 03:57:42;;;;;;;4.53;1.83;;;20.60;99.90;;;;;;5037074;28;20128;-80
2022/08/26 04:00:13;;;;;;;4.43;1.58;;;20.60;99.90;;;;;;5038190;28;20076;-80
2022/08/26 04:02:39;;;;;;;5.47;1.50;;;20.60;99.90;;;;;;5052483;28;20052;-80
2022/08/26 04:05:06;;;;;;;4.47;1.75;;;20.60;99.90;;;;;;5036082;28;20083;-80
2022/08/26 04:07:31;;;;;;;3.70;1.27;;;20.60;99.90;;;;;;5036433;28;20081;-80
2022/08/26 04:09:57;;;;;;;4.10;1.17;;;20.60;99.90;;;;;;5053124;28;20045;-80
2022/08/26 04:12:24;;;;;;;7.28;1.77;;;20.60;99.90;;;;;;5051367;28;20041;-80
2022/08/26 04:14:51;;;;;;;2.15;1.27;;;20.60;99.90;;;;;;5052548;28;20037;-79
2022/08/26 04:17:17;;;;;;;4.82;1.55;;;20.60;99.90;;;;;;5053759;28;20055;-79
2022/08/26 04:19:43;;;;;;;3.08;1.42;;;20.60;99.90;;;;;;5037490;28;20044;-79
2022/08/26 04:22:09;;;;;;;3.50;1.67;;;20.60;99.90;;;;;;5052706;28;20044;-79
2022/08/26 04:24:36;;;;;;;2.72;1.20;;;20.60;99.90;;;;;;5050164;28;20083;-79
2022/08/26 04:27:02;;;;;;;5.53;2.72;;;20.60;99.90;;;;;;5032909;28;20045;-79
2022/08/26 04:29:28;;;;;;;4.20;1.58;;;20.60;99.90;;;;;;5027596;28;20148;-79
2022/08/26 04:31:54;;;;;;;3.47;1.23;;;20.60;99.90;;;;;;5034886;28;20045;-80
2022/08/26 04:34:22;;;;;;;3.50;1.67;;;20.60;99.90;;;;;;5051883;28;20563;-81
2022/08/26 04:36:47;;;;;;;4.65;1.42;;;20.60;99.90;;;;;;5073355;22;20143;-80
2022/08/26 04:39:16;;;;;;;4.00;1.70;;;20.50;99.90;;;;;;5039273;28;20127;-80
2022/08/26 04:41:43;;;;;;;3.85;1.63;;;20.50;99.90;;;;;;5073546;28;20433;-80
2022/08/26 04:44:09;;;;;;;4.90;1.30;;;20.50;99.90;;;;;;5071404;28;20044;-80
2022/08/26 04:46:35;;;;;;;4.40;1.38;;;20.50;99.90;;;;;;5055299;28;20047;-80
2022/08/26 04:49:02;;;;;;;6.90;2.03;;;20.50;99.90;;;;;;5055153;28;20069;-80
2022/08/26 04:51:28;;;;;;;3.90;1.15;;;20.50;99.90;;;;;;5063944;28;20099;-81
2022/08/26 04:53:58;;;;;;;3.00;0.98;;;20.50;99.90;;;;;;5053415;28;20037;-80
2022/08/26 04:56:29;;;;;;;1.83;1.10;;;20.50;99.90;;;;;;5070065;28;20106;-80
2022/08/26 04:58:55;;;;;;;6.22;1.25;;;20.50;99.90;;;;;;5071983;28;20036;-81
2022/08/26 05:01:21;;;;;;;2.30;1.33;;;20.50;99.90;;;;;;5055075;28;20051;-81
2022/08/26 05:03:48;;;;;;;1.92;0.90;;;20.50;99.90;;;;;;5072297;28;20562;-79
2022/08/26 05:06:15;;;;;;;2.05;1.48;;;20.50;99.90;;;;;;5072753;28;20040;-79
2022/08/26 05:08:40;;;;;;;2.70;1.08;;;20.60;99.90;;;;;;5055321;28;20048;-79
2022/08/26 05:11:06;;;;;;;3.88;1.00;;;20.60;99.90;;;;;;5070335;28;20040;-79
2022/08/26 05:13:33;;;;;;;6.10;1.52;;;20.60;99.90;;;;;;5054501;28;20036;-79
2022/08/26 05:16:05;;;;;;;2.63;1.20;;;20.60;99.90;;;;;;5039901;28;20076;-79
2022/08/26 05:18:32;;;;;;;4.47;1.52;;;20.60;99.90;;;;;;5054532;28;20036;-79
2022/08/26 05:20:59;;;;;;;4.20;1.27;;;20.70;99.90;;;;;;5072590;28;20047;-79
2022/08/26 05:23:26;;;;;;;3.40;1.73;;;20.60;99.90;;;;;;5072930;28;20048;-79
2022/08/26 05:25:54;;;;;;;3.85;1.08;;;20.60;99.90;;;;;;5061933;28;20123;-79
2022/08/26 05:28:20;;;;;;;3.50;1.42;;;20.60;99.90;;;;;;5070098;28;20068;-80
2022/08/26 05:30:48;;;;;;;2.08;0.77;;;20.60;99.90;;;;;;5070390;28;20033;-79
2022/08/26 05:33:15;;;;;;;5.78;1.20;;;20.70;99.90;;;;;;5071954;28;20078;-79
2022/08/26 05:35:41;;;;;;;2.08;1.05;;;20.70;99.90;;;;;;5072830;28;20056;-79
2022/08/26 05:38:10;;;;;;;2.17;1.05;;;20.70;99.90;;;;;;5072173;28;20052;-79
2022/08/26 05:40:39;;;;;;;3.97;1.13;;;20.70;99.90;;;;;;5053226;28;20075;-78
2022/08/26 05:43:09;;;;;;;5.00;1.92;;;20.60;99.90;;;;;;5072581;28;20046;-79
2022/08/26 05:45:40;;;;;;;6.63;1.65;;;20.60;99.90;;;;;;5072729;28;20049;-79
2022/08/26 05:48:07;;;;;;;3.08;1.23;;;20.60;99.90;;;;;;5039127;28;20045;-79
2022/08/26 05:51:01;;;;;;;2.78;0.80;;;20.60;99.90;;;;;;5069104;28;20047;-81
2022/08/26 05:53:27;;;;;;;6.28;1.63;;;20.60;99.90;;;;;;5086574;28;20123;-79
2022/08/26 05:55:54;;;;;;;4.35;1.42;;;20.60;99.90;;;;;;5072502;28;20124;-79
2022/08/26 05:58:21;;;;;;;8.40;1.75;;;20.60;99.90;;;;;;5053921;28;20074;-79
2022/08/26 06:00:59;;;;;;;4.38;1.52;;;20.60;99.90;;;;;;5055837;28;20483;-79
2022/08/26 06:03:25;;;;;;;3.15;1.30;;;20.50;99.90;;;;;;5072518;28;20045;-79
2022/08/26 06:05:51;;;;;;;3.97;1.00;;;20.50;99.90;;;;;;5069698;28;20044;-79
2022/08/26 06:08:19;;;;;;;3.45;0.98;;;20.50;99.90;;;;;;5059472;28;20036;-79
2022/08/26 06:10:54;;;;;;;4.57;1.25;;;20.40;99.90;;;;;;5052421;28;20086;-79
2022/08/26 06:13:23;;;;;;;1.50;1.13;;;20.50;99.90;;;;;;5052578;28;20495;-79
2022/08/26 06:15:50;;;;;;;3.60;0.90;;;20.50;99.90;;;;;;5068606;28;20037;-79
2022/08/26 06:18:19;;;;;;;2.80;1.42;;;20.50;99.90;;;;;;5071472;28;20043;-78
2022/08/26 06:20:46;;;;;;;1.23;0.60;;;20.50;99.90;;;;;;5060797;28;20037;-78
2022/08/26 06:25:59;;;;;;;2.15;0.85;;;20.40;99.90;;;;;;5071835;28;20131;-79
2022/08/26 06:28:25;;;;;;;5.90;2.13;;;20.50;99.90;;;;;;5069823;28;20120;-80
2022/08/26 06:30:52;;;;;;;3.08;1.02;;;20.40;99.90;;;;;;5050089;28;20032;-80
2022/08/26 06:33:18;;;;;;;3.22;1.00;;;20.40;99.90;;;;;;5072001;28;20098;-80
2022/08/26 06:35:45;;;;;;;2.20;0.60;;;20.40;99.90;;;;;;5054262;28;20390;-80
2022/08/26 06:38:12;;;;;;;3.38;1.63;;;20.40;99.90;;;;;;5064616;28;20406;-80
2022/08/26 06:40:44;;;;;;;3.72;0.90;;;20.50;99.90;;;;;;5028346;28;20525;-80
2022/08/26 06:43:14;;;;;;;4.22;0.90;;;20.50;99.90;;;;;;5071840;28;20044;-80
2022/08/26 06:45:39;;;;;;;3.08;0.90;;;20.50;99.90;;;;;;5072982;28;20040;-80
2022/08/26 06:48:06;;;;;;;2.70;0.75;;;20.50;99.90;;;;;;5059124;28;20388;-80
2022/08/26 06:50:33;;;;;;;2.42;0.75;;;20.50;99.90;;;;;;5058431;28;20041;-79
2022/08/26 06:52:59;;;;;;;3.00;0.80;;;20.50;99.90;;;;;;5059104;28;20115;-80
2022/08/26 06:55:24;;;;;;;4.43;0.93;;;20.60;99.90;;;;;;5059149;28;20123;-80
2022/08/26 06:57:50;;;;;;;2.22;0.57;;;20.60;99.90;;;;;;5075300;28;20055;-80
2022/08/26 07:00:17;;;;;;;4.20;1.33;;;20.70;99.90;;;;;;5059194;28;20094;-80
2022/08/26 07:02:42;;;;;;;1.25;0.63;;;20.80;99.90;;;;;;5074968;28;20499;-81
2022/08/26 07:05:08;;;;;;;1.73;0.73;;;20.80;99.90;;;;;;5075689;28;20129;-80
2022/08/26 07:07:34;;;;;;;3.33;0.77;;;20.80;99.90;;;;;;5075042;28;20410;-80
2022/08/26 07:10:00;;;;;;;4.60;1.23;;;20.90;99.90;;;;;;5075484;28;20041;-80
2022/08/26 07:12:26;;;;;;;6.82;1.98;;;21.00;99.90;;;;;;5058944;28;20451;-80
2022/08/26 07:14:52;;;;;;;2.08;0.93;;;21.00;99.90;;;;;;5074567;28;20123;-80
2022/08/26 07:17:18;;;;;;;0.40;0.40;;;21.10;99.90;;;;;;5074746;28;20129;-81
2022/08/26 07:19:44;;;;;;;1.33;0.52;;;21.00;99.90;;;;;;5075002;28;20040;-80
2022/08/26 07:22:11;;;;;;;1.63;1.15;;;21.10;99.90;;;;;;5075453;28;20501;-80
2022/08/26 07:24:40;;;;;;;2.95;0.70;;;21.10;99.90;;;;;;5058433;28;20036;-80
2022/08/26 07:27:08;;;;;;;3.33;0.90;;;21.10;99.90;;;;;;5074568;28;20055;-80
2022/08/26 07:29:35;;;;;;;3.83;0.93;;;21.20;99.90;;;;;;5072053;28;20455;-80
2022/08/26 07:32:02;;;;;;;1.95;0.82;;;21.20;99.90;;;;;;5066319;28;20123;-80
2022/08/26 07:34:28;;;;;;;6.30;1.38;;;21.30;99.90;;;;;;5046738;28;20039;-81
2022/08/26 07:36:55;;;;;;;1.10;0.30;;;21.30;99.90;;;;;;5071763;28;20368;-80
2022/08/26 07:39:22;;;;;;;2.03;0.68;;;21.40;99.90;;;;;;5050056;28;20127;-80
2022/08/26 07:41:47;;;;;;;2.00;0.70;;;21.50;99.90;;;;;;5072241;28;20498;-81
2022/08/26 07:44:14;;;;;;;1.83;0.68;;;21.70;99.90;;;;;;5037328;28;20047;-81
2022/08/26 07:46:40;;;;;;;4.00;1.15;;;21.70;99.90;;;;;;5062957;28;20070;-81
2022/08/26 07:49:06;;;;;;;3.40;0.57;;;21.80;99.90;;;;;;5057749;28;20457;-82
2022/08/26 07:51:32;;;;;;;1.83;0.98;;;21.80;99.90;;;;;;5074811;28;20417;-81
2022/08/26 07:53:58;;;;;;;4.55;0.57;;;21.80;99.90;;;;;;5053185;28;20033;-81
2022/08/26 07:56:24;;;;;;;0.75;0.45;;;21.70;99.90;;;;;;5055584;28;20071;-81
2022/08/26 07:58:51;;;;;;;2.90;0.60;;;21.60;99.90;;;;;;5073695;28;20129;-81
2022/08/26 08:01:18;;;;;;;2.80;0.65;;;21.60;99.90;;;;;;5074165;28;20044;-81
2022/08/26 08:03:44;;;;;;;4.75;0.73;;;21.50;99.90;;;;;;5057745;28;20041;-81
2022/08/26 08:06:10;;;;;;;3.13;0.98;;;21.40;99.90;;;;;;5057054;28;20577;-81
2022/08/26 08:08:36;;;;;;;3.42;0.77;;;21.40;99.90;;;;;;5073831;28;20052;-81
2022/08/26 08:11:02;;;;;;;3.55;1.13;;;21.30;99.90;;;;;;5058006;28;20131;-82
2022/08/26 08:13:28;;;;;;;2.08;0.88;;;21.40;99.90;;;;;;5074438;28;20043;-81
2022/08/26 08:15:54;;;;;;;2.38;0.60;;;21.40;99.90;;;;;;5073920;28;20377;-81
2022/08/26 08:18:21;;;;;;;5.25;1.23;;;21.40;99.90;;;;;;5074048;28;20044;-81
2022/08/26 08:20:47;;;;;;;1.77;0.45;;;21.50;99.90;;;;;;5074407;28;20490;-81
2022/08/26 08:23:15;;;;;;;1.92;0.57;;;21.60;99.90;;;;;;5074445;28;20049;-81
2022/08/26 08:25:40;;;;;;;1.08;0.35;;;21.70;99.90;;;;;;5074413;28;20098;-82
2022/08/26 08:28:06;;;;;;;2.17;0.73;;;21.80;99.90;;;;;;5070231;28;20036;-81
2022/08/26 08:30:32;;;;;;;2.33;0.80;;;22.00;99.90;;;;;;5070408;28;20040;-81
2022/08/26 08:32:57;;;;;;;3.88;1.00;;;22.20;99.90;;;;;;5065679;28;20540;-81
2022/08/26 08:35:25;;;;;;;3.60;0.70;;;22.60;99.90;;;;;;5052841;28;20041;-81
2022/08/26 08:37:53;;;;;;;0.95;0.57;;;22.90;99.90;;;;;;5051973;28;20055;-81
2022/08/26 08:40:21;;;;;;;3.67;0.77;;;23.30;99.90;;;;;;5060224;28;20048;-81
2022/08/26 08:43:05;;;;;;;1.58;0.50;;;23.70;99.90;;;;;;5062000;28;20422;-81
2022/08/26 08:45:39;;;;;;;5.72;1.38;;;24.60;99.90;;;;;;5069431;28;20040;-81
2022/08/26 08:48:24;;;;;;;3.50;0.88;;;24.90;99.90;;;;;;5063780;28;20052;-81
2022/08/26 08:50:54;;;;;;;2.88;0.63;;;24.70;99.90;;;;;;5058729;28;20626;-82
2022/08/26 08:53:36;;;;;;;4.07;1.15;;;24.20;99.90;;;;;;5068388;28;20116;-81
2022/08/26 08:56:24;;;;;;;5.78;0.88;;;23.90;99.90;;;;;;5063156;28;20047;-81
2022/08/26 08:59:15;;;;;;;4.38;1.15;;;23.40;99.90;;;;;;5070579;28;20389;-81
2022/08/26 09:01:50;;;;;;;2.30;0.52;;;23.00;99.90;;;;;;5049415;28;20055;-82
2022/08/26 09:04:25;;;;;;;2.10;0.70;;;22.70;99.90;;;;;;5062850;28;20040;-81
2022/08/26 09:06:55;;;;;;;2.55;0.88;;;22.50;99.90;;;;;;5071102;28;20048;-81
2022/08/26 09:09:44;;;;;;;3.00;0.85;;;22.40;99.90;;;;;;5065230;28;20040;-81
2022/08/26 09:12:19;;;;;;;4.93;0.75;;;22.40;99.90;;;;;;5044593;28;20033;-82
2022/08/26 09:14:47;;;;;;;2.15;0.73;;;22.30;99.90;;;;;;5063551;28;20068;-81
2022/08/26 09:17:45;;;;;;;2.78;0.60;;;22.30;99.90;;;;;;5059922;28;20036;-81
2022/08/26 09:20:29;;;;;;;1.08;0.38;;;22.30;99.90;;;;;;5064338;28;20072;-81
2022/08/26 09:22:56;;;;;;;3.53;0.70;;;22.20;99.90;;;;;;5066351;28;20115;-81
2022/08/26 09:25:22;;;;;;;2.72;0.70;;;22.30;99.90;;;;;;5045978;28;20078;-81
2022/08/26 09:27:50;;;;;;;2.45;0.45;;;22.40;99.90;;;;;;5065023;28;20123;-81
2022/08/26 09:30:29;;;;;;;1.00;0.40;;;22.40;99.90;;;;;;5062531;28;20041;-81
2022/08/26 09:33:07;;;;;;;3.17;0.82;;;22.40;99.90;;;;;;5062737;28;20032;-81
2022/08/26 09:35:39;;;;;;;2.13;0.80;;;22.30;99.90;;;;;;5046360;28;20040;-81
2022/08/26 09:38:31;;;;;;;0.98;0.30;;;22.20;99.90;;;;;;5042774;28;20043;-81
2022/08/26 09:41:04;;;;;;;1.15;0.60;;;22.10;99.90;;;;;;5053030;28;20037;-81
2022/08/26 09:43:31;;;;;;;4.70;1.20;;;22.10;99.90;;;;;;5054174;28;20067;-81
2022/08/26 09:46:26;;;;;;;4.75;1.20;;;22.20;99.90;;;;;;5053835;28;20504;-81
2022/08/26 09:48:51;;;;;;;4.78;0.68;;;22.10;99.90;;;;;;5067128;28;20079;-81
2022/08/26 09:51:23;;;;;;;2.53;0.47;;;22.00;99.90;;;;;;5056115;28;20514;-81
2022/08/26 09:53:55;;;;;;;1.30;0.47;;;21.90;99.90;;;;;;5068284;28;20044;-82
2022/08/26 09:56:31;;;;;;;4.25;0.60;;;21.90;99.90;;;;;;5052222;28;20041;-81
2022/08/26 09:58:58;;;;;;;1.58;0.52;;;21.80;99.90;;;;;;5035986;28;20102;-81
2022/08/26 10:01:30;;;;;;;1.55;0.47;;;21.80;99.90;;;;;;5068099;28;20467;-82
2022/08/26 10:04:10;;;;;;;3.10;0.60;;;21.80;99.90;;;;;;5072810;28;20123;-82
2022/08/26 10:07:07;;;;;;;3.35;0.70;;;21.80;99.90;;;;;;5056560;28;20040;-81
2022/08/26 10:09:38;;;;;;;2.05;0.93;;;21.70;99.90;;;;;;5067740;28;20084;-82
2022/08/26 10:12:16;;;;;;;2.55;0.43;;;21.70;99.90;;;;;;5072451;28;20040;-82
2022/08/26 10:14:52;;;;;;;3.67;1.00;;;21.60;99.90;;;;;;5056128;28;20467;-81
2022/08/26 10:17:31;;;;;;;2.03;0.57;;;21.50;99.90;;;;;;5051955;28;20077;-81
2022/08/26 10:20:17;;;;;;;1.48;0.68;;;21.50;99.90;;;;;;5072567;28;20041;-81
2022/08/26 10:23:08;;;;;;;1.85;0.60;;;21.40;99.90;;;;;;5075992;28;20042;-81
2022/08/26 10:25:50;;;;;;;2.67;0.80;;;21.40;99.90;;;;;;5056375;28;20037;-82
2022/08/26 10:28:26;;;;;;;5.80;0.80;;;21.40;99.90;;;;;;5063513;28;20356;-80
2022/08/26 10:30:59;;;;;;;4.55;0.70;;;21.40;99.90;;;;;;5052862;28;20386;-80
2022/08/26 10:33:25;;;;;;;4.95;0.77;;;21.40;99.90;;;;;;5061358;28;20398;-81
2022/08/26 10:35:54;;;;;;;2.03;0.50;;;21.50;99.90;;;;;;5052562;28;20049;-80
2022/08/26 10:38:38;;;;;;;0.95;0.55;;;21.60;99.90;;;;;;5055234;28;20128;-80
2022/08/26 10:41:19;;;;;;;1.88;0.70;;;21.60;99.90;;;;;;5038556;28;20040;-81
2022/08/26 10:43:59;;;;;;;1.35;0.70;;;21.60;99.90;;;;;;5062608;28;20097;-81
2022/08/26 10:46:32;;;;;;;2.53;1.08;;;21.50;99.90;;;;;;5058484;28;20048;-80
2022/08/26 10:49:04;;;;;;;1.17;0.55;;;21.40;99.90;;;;;;5076769;28;20049;-80
2022/08/26 10:51:37;;;;;;;2.80;0.40;;;21.40;99.90;;;;;;5074817;28;20098;-80
2022/08/26 10:54:18;;;;;;;2.65;0.52;;;21.50;99.90;;;;;;5066200;28;20098;-80
2022/08/26 10:57:00;;;;;;;1.67;0.65;;;21.50;99.90;;;;;;5054681;28;20043;-80
2022/08/26 10:59:48;;;;;;;1.25;0.50;;;21.50;99.90;;;;;;5042047;28;20124;-80
2022/08/26 11:02:41;;;;;;;4.00;0.90;;;21.40;99.90;;;;;;5062725;28;20044;-81
2022/08/26 11:05:21;;;;;;;0.70;0.30;;;21.50;99.90;;;;;;5066041;28;20037;-80
2022/08/26 11:07:54;;;;;;;0.85;0.52;;;21.40;99.90;;;;;;5063732;28;20041;-81
2022/08/26 11:10:20;;;;;;;0.90;0.43;;;21.40;99.90;;;;;;5040464;28;20045;-82
2022/08/26 11:12:57;;;;;;;2.25;0.75;;;21.40;99.90;;;;;;5065139;28;20041;-82
2022/08/26 11:15:23;;;;;;;4.20;0.77;;;21.30;99.90;;;;;;5041801;28;20120;-82
2022/08/26 11:17:54;;;;;;;0.93;0.30;;;21.20;99.90;;;;;;5064124;28;20073;-82
2022/08/26 11:20:28;;;;;;;3.42;0.65;;;21.10;99.90;;;;;;5071579;28;20044;-82
2022/08/26 11:23:15;;;;;;;4.70;0.75;;;21.10;99.90;;;;;;5070171;28;20029;-83
2022/08/26 11:26:05;;;;;;;1.95;0.55;;;21.20;99.90;;;;;;5041364;28;20384;-83
2022/08/26 11:28:47;;;;;;;3.15;1.17;;;21.20;99.90;;;;;;5071249;28;20044;-81
2022/08/26 11:31:25;;;;;;;1.88;0.38;;;21.30;99.90;;;;;;5074270;28;20036;-81
2022/08/26 11:33:59;;;;;;;2.78;0.57;;;21.30;99.90;;;;;;5074870;28;20044;-81
2022/08/26 11:36:39;;;;;;;1.95;0.65;;;21.20;99.90;;;;;;5056176;28;20127;-82
2022/08/26 11:39:45;;;;;;;1.48;0.45;;;21.30;99.90;;;;;;5075155;28;20037;-81
2022/08/26 11:42:30;;;;;;;1.73;0.35;;;21.30;99.90;;;;;;5058232;28;20098;-81
2022/08/26 11:44:57;;;;;;;4.60;0.80;;;21.20;99.90;;;;;;5051221;28;20032;-81
2022/08/26 11:47:29;;;;;;;2.03;0.60;;;21.20;99.90;;;;;;5057307;28;20036;-81
2022/08/26 11:50:06;;;;;;;1.75;0.40;;;21.20;99.90;;;;;;5071216;28;20044;-81
2022/08/26 11:52:32;;;;;;;1.50;0.47;;;21.30;99.90;;;;;;5072240;28;20490;-81
2022/08/26 11:54:59;;;;;;;1.30;0.43;;;21.40;99.90;;;;;;5071409;28;20072;-81
2022/08/26 11:57:25;;;;;;;2.05;0.88;;;21.50;99.90;;;;;;5072793;28;20122;-81
2022/08/26 11:59:51;;;;;;;0.80;0.50;;;21.40;99.90;;;;;;5074443;28;20547;-81
2022/08/26 12:02:18;;;;;;;6.53;1.17;;;21.30;99.90;;;;;;5057973;28;20036;-82
2022/08/26 12:04:47;;;;;;;2.72;0.55;;;21.20;99.90;;;;;;5057905;28;20190;-82
2022/08/26 12:07:15;;;;;;;1.25;0.70;;;21.10;99.90;;;;;;5062042;28;20483;-81
2022/08/26 12:09:53;;;;;;;1.75;0.60;;;21.00;99.90;;;;;;5058351;28;20056;-82
2022/08/26 12:12:36;;;;;;;2.35;0.75;;;20.90;99.90;;;;;;5074421;28;20041;-82
2022/08/26 12:15:13;;;;;;;1.65;0.73;;;20.80;99.90;;;;;;5057068;28;20048;-83
2022/08/26 12:17:39;;;;;;;2.05;0.75;;;20.80;99.90;;;;;;5064967;28;20069;-82
2022/08/26 12:20:16;;;;;;;2.17;0.47;;;20.70;99.90;;;;;;5047058;28;20036;-82
2022/08/26 12:22:42;;;;;;;0.77;0.50;;;20.70;99.90;;;;;;5074185;28;20094;-82
2022/08/26 12:25:09;;;;;;;0.70;0.40;;;20.60;99.90;;;;;;5054691;28;20045;-82
2022/08/26 12:27:43;;;;;;;1.58;0.63;;;20.60;99.90;;;;;;5054056;28;20055;-82
2022/08/26 12:30:15;;;;;;;3.58;0.63;;;20.60;99.90;;;;;;5049296;28;20098;-82
2022/08/26 12:32:44;;;;;;;2.03;0.60;;;20.60;99.90;;;;;;5056843;28;20425;-82
2022/08/26 12:35:12;;;;;;;1.38;0.60;;;20.60;99.90;;;;;;5065458;28;20094;-81
2022/08/26 12:37:42;;;;;;;1.70;0.70;;;20.60;99.90;;;;;;5067053;28;20048;-81
2022/08/26 12:40:29;;;;;;;3.33;0.60;;;20.60;99.90;;;;;;5051992;28;20087;-82
2022/08/26 12:42:58;;;;;;;1.55;0.63;;;20.60;99.90;;;;;;5047618;28;20082;-81
2022/08/26 12:45:57;;;;;;;2.65;1.27;;;20.60;99.90;;;;;;5067930;28;20073;-81
2022/08/26 12:48:30;;;;;;;1.67;0.77;;;20.60;99.90;;;;;;5037251;28;20087;-81
2022/08/26 12:50:57;;;;;;;1.48;0.22;;;20.60;99.90;;;;;;5045542;28;20031;-82
2022/08/26 12:53:26;;;;;;;2.53;0.77;;;20.60;99.90;;;;;;5069599;28;20029;-82
2022/08/26 12:55:55;;;;;;;1.67;0.50;;;20.60;99.90;;;;;;5044607;28;20119;-82
2022/08/26 12:58:38;;;;;;;1.42;0.52;;;20.50;99.90;;;;;;5062446;28;20045;-82
2022/08/26 13:01:03;;;;;;;0.60;0.35;;;20.40;99.90;;;;;;5060213;28;20139;-81
2022/08/26 13:03:53;;;;;;;0.30;0.30;;;20.30;99.90;;;;;;5046403;28;20055;-82
2022/08/26 13:06:28;;;;;;;0.57;0.57;;;20.30;99.90;;;;;;5105225;22;20429;-83